createdAt,value
2023-04-18T00:00:47.624Z,130.30
2023-04-18T00:04:47.801Z,130.28
2023-04-18T00:08:47.682Z,131.25
2023-04-18T00:12:47.737Z,129.62
2023-04-18T00:16:47.861Z,131.02
2023-04-18T00:20:47.811Z,130.79
2023-04-18T00:24:47.837Z,129.58
2023-04-18T00:28:47.863Z,130.16
2023-04-18T00:32:48.008Z,130.79
2023-04-18T00:36:48.117Z,130.12
2023-04-18T00:40:48.286Z,128.80
2023-04-18T00:44:48.437Z,128.98
2023-04-18T00:48:48.563Z,129.26
2023-04-18T00:52:48.751Z,128.05
2023-04-18T00:56:48.930Z,128.70
2023-04-18T01:00:49.012Z,128.82
2023-04-18T01:04:49.197Z,128.25
2023-04-18T01:08:49.381Z,128.57
2023-04-18T01:12:49.555Z,127.44
2023-04-18T01:16:49.729Z,127.98
2023-04-18T01:20:49.946Z,127.06
2023-04-18T01:24:50.100Z,128.77
2023-04-18T01:28:50.247Z,126.65
2023-04-18T01:32:50.486Z,126.62
2023-04-18T01:36:50.620Z,125.92
2023-04-18T01:40:50.769Z,127.52
2023-04-18T01:44:50.946Z,125.55
2023-04-18T01:48:51.121Z,127.10
2023-04-18T01:52:51.265Z,126.14
2023-04-18T01:56:51.413Z,124.90
2023-04-18T02:00:51.587Z,125.82
2023-04-18T02:04:51.732Z,125.32
2023-04-18T02:08:51.883Z,125.46
2023-04-18T02:12:52.064Z,124.72
2023-04-18T02:16:52.337Z,124.65
2023-04-18T02:20:52.493Z,123.97
2023-04-18T02:24:52.644Z,123.84
2023-04-18T02:28:52.848Z,124.52
2023-04-18T02:32:53.186Z,123.51
2023-04-18T02:36:53.184Z,123.38
2023-04-18T02:40:53.339Z,122.78
2023-04-18T02:44:53.551Z,123.19
2023-04-18T02:48:53.726Z,121.51
2023-04-18T02:52:53.949Z,122.31
2023-04-18T02:56:54.177Z,122.24
2023-04-18T03:00:54.479Z,121.48
2023-04-18T03:04:54.549Z,122.41
2023-04-18T03:08:54.760Z,121.39
2023-04-18T03:12:54.994Z,121.09
2023-04-18T03:16:55.525Z,120.74
2023-04-18T03:20:55.369Z,120.73
2023-04-18T03:24:55.572Z,120.12
2023-04-18T03:28:55.765Z,120.74
2023-04-18T03:32:56.003Z,120.10
2023-04-18T03:36:56.124Z,119.80
2023-04-18T03:40:56.336Z,120.57
2023-04-18T03:44:56.504Z,120.54
2023-04-18T03:48:56.727Z,118.64
2023-04-18T03:52:56.687Z,119.22
2023-04-18T03:56:56.654Z,118.69
2023-04-18T04:00:56.605Z,119.45
2023-04-18T04:04:56.641Z,118.07
2023-04-18T04:08:56.565Z,117.93
2023-04-18T04:12:56.571Z,118.11
2023-04-18T04:16:56.472Z,118.56
2023-04-18T04:20:56.436Z,118.28
2023-04-18T04:24:56.423Z,117.61
2023-04-18T04:28:56.360Z,117.07
2023-04-18T04:32:56.352Z,117.40
2023-04-18T04:36:56.574Z,117.65
2023-04-18T04:40:56.762Z,117.57
2023-04-18T04:44:57.122Z,115.72
2023-04-18T04:48:57.152Z,116.83
2023-04-18T04:52:57.318Z,116.40
2023-04-18T04:56:57.548Z,115.43
2023-04-18T05:00:57.781Z,115.66
2023-04-18T05:04:57.961Z,115.59
2023-04-18T05:08:58.151Z,116.36
2023-04-18T05:12:58.291Z,120.38
2023-04-18T05:16:58.425Z,122.67
2023-04-18T05:20:58.417Z,122.87
2023-04-18T05:24:58.503Z,121.04
2023-04-18T05:28:58.557Z,117.02
2023-04-18T05:32:58.691Z,114.14
2023-04-18T05:36:58.739Z,116.38
2023-04-18T05:40:58.786Z,115.79
2023-04-18T05:44:58.817Z,114.01
2023-04-18T05:48:58.864Z,112.07
2023-04-18T05:52:58.992Z,122.52
2023-04-18T05:56:59.113Z,122.61
2023-04-18T06:00:59.240Z,116.94
2023-04-18T06:04:59.620Z,112.97
2023-04-18T06:08:59.412Z,124.88
2023-04-18T06:12:59.482Z,135.12
2023-04-18T06:16:59.598Z,154.99
2023-04-18T06:20:59.648Z,177.84
2023-04-18T06:24:59.878Z,196.69
2023-04-18T06:29:00.063Z,214.97
2023-04-18T06:33:00.226Z,231.00
2023-04-18T06:37:00.303Z,244.39
2023-04-18T06:41:00.278Z,249.86
2023-04-18T06:45:00.344Z,250.00
2023-04-18T06:49:00.401Z,249.09
2023-04-18T06:53:00.516Z,250.00
2023-04-18T06:57:00.496Z,250.00
2023-04-18T07:01:00.608Z,249.43
2023-04-18T07:05:08.113Z,246.44
2023-04-18T07:09:00.800Z,248.79
2023-04-18T07:13:00.557Z,247.76
2023-04-18T07:17:00.542Z,246.19
2023-04-18T07:21:00.481Z,245.01
2023-04-18T07:25:00.633Z,243.48
2023-04-18T07:29:00.399Z,240.98
2023-04-18T07:33:07.365Z,240.11
2023-04-18T07:37:00.341Z,236.73
2023-04-18T07:41:07.795Z,236.37
2023-04-18T07:45:00.271Z,239.90
2023-04-18T07:49:00.245Z,187.27
2023-04-18T07:53:00.184Z,195.64
2023-04-18T07:57:00.198Z,201.27
2023-04-18T08:01:00.152Z,207.98
2023-04-18T08:05:00.281Z,212.69
2023-04-18T08:09:00.072Z,220.01
2023-04-18T08:13:07.714Z,226.33
2023-04-18T08:17:00.150Z,230.64
2023-04-18T08:21:00.151Z,238.23
2023-04-18T08:25:05.086Z,246.82
2023-04-18T08:29:01.203Z,249.56
2023-04-18T08:33:00.051Z,248.60
2023-04-18T08:37:00.127Z,249.64
2023-04-18T08:41:00.284Z,247.70
2023-04-18T08:45:00.459Z,168.69
2023-04-18T08:49:00.434Z,174.17
2023-04-18T08:53:00.489Z,195.94
2023-04-18T08:57:00.568Z,208.81
2023-04-18T09:01:00.799Z,54.63
2023-04-18T09:05:00.811Z,71.03
2023-04-18T09:09:00.908Z,128.05
2023-04-18T09:13:01.097Z,160.93
2023-04-18T09:17:01.213Z,183.17
2023-04-18T09:21:01.152Z,204.09
2023-04-18T09:25:01.274Z,221.80
2023-04-18T09:29:01.491Z,242.33
2023-04-18T09:33:01.804Z,246.70
2023-04-18T09:37:01.875Z,251.34
2023-04-18T09:41:01.956Z,247.77
2023-04-18T09:45:02.100Z,250.40
2023-04-18T09:49:02.379Z,247.99
2023-04-18T09:53:02.422Z,203.62
2023-04-18T09:57:02.565Z,215.74
2023-04-18T10:01:02.860Z,217.68
2023-04-18T10:05:02.863Z,213.85
2023-04-18T10:09:02.695Z,216.99
2023-04-18T10:13:02.663Z,215.05
2023-04-18T10:17:02.648Z,211.75
2023-04-18T10:21:02.617Z,210.12
2023-04-18T10:25:02.534Z,209.64
2023-04-18T10:29:02.508Z,208.18
2023-04-18T10:33:02.451Z,205.46
2023-04-18T10:37:02.441Z,201.85
2023-04-18T10:41:02.379Z,199.73
2023-04-18T10:45:02.442Z,105.24
2023-04-18T10:49:02.351Z,135.03
2023-04-18T10:53:02.410Z,133.65
2023-04-18T10:57:02.265Z,121.80
2023-04-18T11:01:02.380Z,113.45
2023-04-18T11:05:02.216Z,103.09
2023-04-18T11:09:02.202Z,94.09
2023-04-18T11:13:02.100Z,83.81
2023-04-18T11:17:02.163Z,78.28
2023-04-18T11:21:02.252Z,74.75
2023-04-18T11:25:02.445Z,69.78
2023-04-18T11:29:02.602Z,63.49
2023-04-18T11:33:02.855Z,59.93
2023-04-18T11:37:03.037Z,56.96
2023-04-18T11:41:03.036Z,54.46
2023-04-18T11:45:02.965Z,53.31
2023-04-18T11:49:02.913Z,45.51
2023-04-18T11:53:02.917Z,40.46
2023-04-18T11:57:02.879Z,35.00
2023-04-18T12:01:02.835Z,35.63
2023-04-18T12:05:03.236Z,31.84
2023-04-18T12:09:02.773Z,26.00
2023-04-18T12:13:02.874Z,26.59
2023-04-18T12:17:02.677Z,32.36
2023-04-18T12:21:02.636Z,25.05
2023-04-18T12:25:02.633Z,25.00
2023-04-18T12:29:02.573Z,27.40
2023-04-18T12:33:02.576Z,25.65
2023-04-18T12:37:02.500Z,31.73
2023-04-18T12:41:02.480Z,25.00
2023-04-18T12:45:02.415Z,31.20
2023-04-18T12:49:02.504Z,33.59
2023-04-18T12:53:02.555Z,36.50
2023-04-18T12:57:02.600Z,34.01
2023-04-18T13:01:09.727Z,29.02
2023-04-18T13:05:02.652Z,29.59
2023-04-18T13:09:02.617Z,36.42
2023-04-18T13:13:02.612Z,71.30
2023-04-18T13:17:02.605Z,77.77
2023-04-18T13:21:02.493Z,85.14
2023-04-18T13:25:02.448Z,90.01
2023-04-18T13:29:02.447Z,95.50
2023-04-18T13:33:02.521Z,100.91
2023-04-18T13:37:02.382Z,103.95
2023-04-18T13:41:12.314Z,107.04
2023-04-18T13:45:03.343Z,108.88
2023-04-18T13:49:02.256Z,112.05
2023-04-18T13:53:02.286Z,113.25
2023-04-18T13:58:24.199Z,25.00
2023-04-18T13:59:24.194Z,25.00
2023-04-18T14:00:24.250Z,25.00
2023-04-18T14:01:24.250Z,25.00
2023-04-18T14:02:24.422Z,25.00
2023-04-18T14:03:24.312Z,24.90
2023-04-18T14:04:24.404Z,27.35
2023-04-18T14:05:24.150Z,31.19
2023-04-18T14:06:24.161Z,33.54
2023-04-18T14:07:24.174Z,34.39
2023-04-18T14:08:24.113Z,30.65
2023-04-18T14:09:24.117Z,31.68
2023-04-18T14:10:24.117Z,30.77
2023-04-18T14:11:24.128Z,35.37
2023-04-18T14:12:24.107Z,41.10
2023-04-18T14:13:24.098Z,43.51
2023-04-18T14:14:24.085Z,41.07
2023-04-18T14:15:24.192Z,41.07
2023-04-18T14:16:24.210Z,48.00
2023-04-18T14:17:24.127Z,45.29
2023-04-18T14:18:24.062Z,46.99
2023-04-18T14:19:24.116Z,48.82
2023-04-18T14:20:24.056Z,50.25
2023-04-18T14:21:24.054Z,53.15
2023-04-18T14:22:24.041Z,52.44
2023-04-18T14:23:24.040Z,51.93
2023-04-18T14:24:24.029Z,51.91
2023-04-18T14:25:24.032Z,54.83
2023-04-18T14:26:24.015Z,55.23
2023-04-18T14:27:24.045Z,53.37
2023-04-18T14:28:24.035Z,55.79
2023-04-18T14:29:23.974Z,56.70
2023-04-18T14:30:24.040Z,56.36
2023-04-18T14:31:24.036Z,55.30
2023-04-18T14:32:24.027Z,54.38
2023-04-18T14:33:23.970Z,55.03
2023-04-18T14:34:23.950Z,56.87
2023-04-18T14:35:23.965Z,52.84
2023-04-18T14:36:23.975Z,52.70
2023-04-18T14:37:23.938Z,55.92
2023-04-18T14:38:23.972Z,55.99
2023-04-18T14:39:23.959Z,54.84
2023-04-18T14:40:23.932Z,54.45
2023-04-18T14:41:23.929Z,55.17
2023-04-18T14:42:23.946Z,57.32
2023-04-18T14:43:23.936Z,56.53
2023-04-18T14:44:23.910Z,55.14
2023-04-18T14:45:23.930Z,57.10
2023-04-18T14:46:23.964Z,56.18
2023-04-18T14:47:24.415Z,56.68
2023-04-18T14:48:24.049Z,56.39
2023-04-18T14:49:24.010Z,55.66
2023-04-18T14:50:24.020Z,53.90
2023-04-18T14:51:24.056Z,54.54
2023-04-18T14:52:24.164Z,54.33
2023-04-18T14:53:24.110Z,50.83
2023-04-18T14:54:24.157Z,53.53
2023-04-18T14:55:24.169Z,55.42
2023-04-18T14:56:24.214Z,52.38
2023-04-18T14:57:24.389Z,54.14
2023-04-18T14:58:24.285Z,53.27
2023-04-18T14:59:24.303Z,54.05
2023-04-18T15:00:24.340Z,53.87
2023-04-18T15:01:24.383Z,55.06
2023-04-18T15:02:24.508Z,55.24
2023-04-18T15:03:24.532Z,55.88
2023-04-18T15:04:24.558Z,54.09
2023-04-18T15:05:24.457Z,51.67
2023-04-18T15:06:24.510Z,54.65
2023-04-18T15:07:24.499Z,52.27
2023-04-18T15:08:24.562Z,53.09
2023-04-18T15:09:24.569Z,53.91
2023-04-18T15:10:24.680Z,54.31
2023-04-18T15:11:24.638Z,54.29
2023-04-18T15:12:24.646Z,52.95
2023-04-18T15:13:24.731Z,54.52
2023-04-18T15:14:24.735Z,54.60
2023-04-18T15:15:24.768Z,52.89
2023-04-18T15:16:24.916Z,51.55
2023-04-18T15:17:24.828Z,50.64
2023-04-18T15:18:24.828Z,55.55
2023-04-18T15:19:24.878Z,52.60
2023-04-18T15:20:24.932Z,53.64
2023-04-18T15:21:24.988Z,51.33
2023-04-18T15:22:24.976Z,51.00
2023-04-18T15:23:25.027Z,55.59
2023-04-18T15:24:25.065Z,53.27
2023-04-18T15:25:25.130Z,48.48
2023-04-18T15:26:25.090Z,52.64
2023-04-18T15:27:25.158Z,50.85
2023-04-18T15:28:25.167Z,47.76
2023-04-18T15:29:25.214Z,49.98
2023-04-18T15:30:25.271Z,48.21
2023-04-18T15:31:25.363Z,50.06
2023-04-18T15:32:25.412Z,50.69
2023-04-18T15:33:25.383Z,50.72
2023-04-18T15:34:25.420Z,49.89
2023-04-18T15:35:25.466Z,49.50
2023-04-18T15:36:25.501Z,47.85
2023-04-18T15:37:25.602Z,49.65
2023-04-18T15:38:25.593Z,48.56
2023-04-18T15:39:25.616Z,47.94
2023-04-18T15:40:25.795Z,54.58
2023-04-18T15:41:25.674Z,51.32
2023-04-18T15:42:25.775Z,50.53
2023-04-18T15:43:25.766Z,47.82
2023-04-18T15:44:25.786Z,47.96
2023-04-18T15:45:25.818Z,46.98
2023-04-18T15:46:25.927Z,50.91
2023-04-18T15:47:25.912Z,49.86
2023-04-18T15:48:25.941Z,51.31
2023-04-18T15:49:25.952Z,49.67
2023-04-18T15:50:26.080Z,50.09
2023-04-18T15:51:26.070Z,50.36
2023-04-18T15:52:26.059Z,49.68
2023-04-18T15:53:26.140Z,50.26
2023-04-18T15:54:26.142Z,47.19
2023-04-18T15:55:26.148Z,45.85
2023-04-18T15:56:26.205Z,44.39
2023-04-18T15:57:26.271Z,49.42
2023-04-18T15:58:26.276Z,49.19
2023-04-18T15:59:26.326Z,45.35
2023-04-18T16:00:26.348Z,46.03
2023-04-18T16:01:26.380Z,47.31
2023-04-18T16:02:26.517Z,47.46
2023-04-18T16:03:26.624Z,48.19
2023-04-18T16:04:26.521Z,46.04
2023-04-18T16:05:26.575Z,46.48
2023-04-18T16:06:26.640Z,44.63
2023-04-18T16:07:26.593Z,44.38
2023-04-18T16:08:26.656Z,48.22
2023-04-18T16:09:26.687Z,44.81
2023-04-18T16:10:26.744Z,42.95
2023-04-18T16:11:26.771Z,44.72
2023-04-18T16:12:26.910Z,42.64
2023-04-18T16:13:26.846Z,44.80
2023-04-18T16:14:26.906Z,44.90
2023-04-18T16:15:26.924Z,44.93
2023-04-18T16:16:27.039Z,45.20
2023-04-18T16:17:27.049Z,42.81
2023-04-18T16:18:27.055Z,46.99
2023-04-18T16:19:27.076Z,46.38
2023-04-18T16:20:27.084Z,42.81
2023-04-18T16:21:27.134Z,46.03
2023-04-18T16:22:27.179Z,46.12
2023-04-18T16:23:28.178Z,46.28
2023-04-18T16:24:27.158Z,46.27
2023-04-18T16:25:27.173Z,44.14
2023-04-18T16:26:27.132Z,46.77
2023-04-18T16:27:27.137Z,44.67
2023-04-18T16:28:27.181Z,47.86
2023-04-18T16:29:27.133Z,47.29
2023-04-18T16:30:27.144Z,47.32
2023-04-18T16:31:27.193Z,47.40
2023-04-18T16:32:27.153Z,45.80
2023-04-18T16:33:27.193Z,45.80
2023-04-18T16:34:27.095Z,44.68
2023-04-18T16:35:27.110Z,45.72
2023-04-18T16:36:27.066Z,48.91
2023-04-18T16:37:27.145Z,43.15
2023-04-18T16:38:27.185Z,43.87
2023-04-18T16:39:27.191Z,44.16
2023-04-18T16:40:27.241Z,44.63
2023-04-18T16:41:27.280Z,44.02
2023-04-18T16:42:27.327Z,43.79
2023-04-18T16:43:27.362Z,44.32
2023-04-18T16:44:27.412Z,43.76
2023-04-18T16:45:27.480Z,45.20
2023-04-18T16:46:27.496Z,44.96
2023-04-18T16:47:27.586Z,46.27
2023-04-18T16:48:27.540Z,45.78
2023-04-18T16:49:27.584Z,44.90
2023-04-18T16:50:27.634Z,43.13
2023-04-18T16:51:27.701Z,40.46
2023-04-18T16:52:27.695Z,44.96
2023-04-18T16:53:27.754Z,44.66
2023-04-18T16:54:27.792Z,44.20
2023-04-18T16:55:27.795Z,41.27
2023-04-18T16:56:27.841Z,44.63
2023-04-18T16:57:27.869Z,47.59
2023-04-18T16:58:27.927Z,45.95
2023-04-18T16:59:27.954Z,40.91
2023-04-18T17:00:28.081Z,45.37
2023-04-18T17:01:28.057Z,44.97
2023-04-18T17:02:28.342Z,44.32
2023-04-18T17:03:28.230Z,41.57
2023-04-18T17:04:28.164Z,41.24
2023-04-18T17:05:28.172Z,39.75
2023-04-18T17:06:28.213Z,42.37
2023-04-18T17:07:28.262Z,42.57
2023-04-18T17:08:28.269Z,42.02
2023-04-18T17:09:28.316Z,40.81
2023-04-18T17:10:28.350Z,40.55
2023-04-18T17:11:28.371Z,41.58
2023-04-18T17:12:28.443Z,40.26
2023-04-18T17:13:28.479Z,41.85
2023-04-18T17:14:28.466Z,41.57
2023-04-18T17:15:28.516Z,39.67
2023-04-18T17:16:28.581Z,41.64
2023-04-18T17:17:28.664Z,41.86
2023-04-18T17:18:28.682Z,41.43
2023-04-18T17:19:28.702Z,40.63
2023-04-18T17:20:28.722Z,41.98
2023-04-18T17:21:28.764Z,39.68
2023-04-18T17:22:28.801Z,40.30
2023-04-18T17:23:30.347Z,39.49
2023-04-18T17:24:28.851Z,42.29
2023-04-18T17:25:28.850Z,41.05
2023-04-18T17:26:28.826Z,42.31
2023-04-18T17:27:28.785Z,39.51
2023-04-18T17:28:28.813Z,39.01
2023-04-18T17:29:28.847Z,35.78
2023-04-18T17:30:28.790Z,38.03
2023-04-18T17:31:28.846Z,39.66
2023-04-18T17:32:28.824Z,39.05
2023-04-18T17:33:28.769Z,41.29
2023-04-18T17:34:28.780Z,41.25
2023-04-18T17:35:28.771Z,44.58
2023-04-18T17:36:28.758Z,41.22
2023-04-18T17:37:28.741Z,40.30
2023-04-18T17:38:28.750Z,42.89
2023-04-18T17:39:28.745Z,42.47
2023-04-18T17:40:28.718Z,41.43
2023-04-18T17:41:28.722Z,41.78
2023-04-18T17:42:28.706Z,40.23
2023-04-18T17:43:28.991Z,39.69
2023-04-18T17:44:28.724Z,39.55
2023-04-18T17:45:28.692Z,40.07
2023-04-18T17:46:28.736Z,41.51
2023-04-18T17:47:28.757Z,40.76
2023-04-18T17:48:28.680Z,41.51
2023-04-18T17:49:28.760Z,38.40
2023-04-18T17:50:28.638Z,42.24
2023-04-18T17:51:28.634Z,39.97
2023-04-18T17:52:28.666Z,40.09
2023-04-18T17:53:30.227Z,37.86
2023-04-18T17:54:28.641Z,38.14
2023-04-18T17:55:28.622Z,38.66
2023-04-18T17:56:28.616Z,39.21
2023-04-18T17:57:28.655Z,39.37
2023-04-18T17:58:28.604Z,41.49
2023-04-18T17:59:28.651Z,39.91
2023-04-18T18:00:28.613Z,42.46
2023-04-18T18:01:28.783Z,42.26
2023-04-18T18:02:28.715Z,41.62
2023-04-18T18:03:28.667Z,40.01
2023-04-18T18:04:28.698Z,39.74
2023-04-18T18:05:28.572Z,39.59
2023-04-18T18:06:28.537Z,39.13
2023-04-18T18:07:28.554Z,40.35
2023-04-18T18:08:28.549Z,41.08
2023-04-18T18:09:28.528Z,40.94
2023-04-18T18:10:28.538Z,40.80
2023-04-18T18:11:28.534Z,39.82
2023-04-18T18:12:28.536Z,39.57
2023-04-18T18:13:28.563Z,41.63
2023-04-18T18:14:28.512Z,39.83
2023-04-18T18:15:28.553Z,37.57
2023-04-18T18:16:28.552Z,38.72
2023-04-18T18:17:28.518Z,41.17
2023-04-18T18:18:28.468Z,41.59
2023-04-18T18:19:28.506Z,40.67
2023-04-18T18:20:28.473Z,41.26
2023-04-18T18:21:28.438Z,37.57
2023-04-18T18:22:28.469Z,39.28
2023-04-18T18:23:28.463Z,45.70
2023-04-18T18:24:28.435Z,39.83
2023-04-18T18:25:28.459Z,38.66
2023-04-18T18:26:28.417Z,42.11
2023-04-18T18:27:28.411Z,40.31
2023-04-18T18:28:28.403Z,41.67
2023-04-18T18:29:28.398Z,41.51
2023-04-18T18:30:28.407Z,40.08
2023-04-18T18:31:28.435Z,40.87
2023-04-18T18:32:28.383Z,43.10
2023-04-18T18:33:28.361Z,40.99
2023-04-18T18:34:28.396Z,38.12
2023-04-18T18:35:28.339Z,41.02
2023-04-18T18:36:28.353Z,39.20
2023-04-18T18:37:28.350Z,39.02
2023-04-18T18:38:28.335Z,43.36
2023-04-18T18:39:28.310Z,41.55
2023-04-18T18:40:28.315Z,42.74
2023-04-18T18:41:28.328Z,44.35
2023-04-18T18:42:28.285Z,44.29
2023-04-18T18:43:28.297Z,41.32
2023-04-18T18:44:28.338Z,40.54
2023-04-18T18:45:28.371Z,38.17
2023-04-18T18:46:28.417Z,42.06
2023-04-18T18:47:28.459Z,40.84
2023-04-18T18:48:28.494Z,36.96
2023-04-18T18:49:28.472Z,40.49
2023-04-18T18:50:28.541Z,43.56
2023-04-18T18:51:29.515Z,38.82
2023-04-18T18:52:28.597Z,38.27
2023-04-18T18:53:28.651Z,36.51
2023-04-18T18:54:28.685Z,38.04
2023-04-18T18:55:28.704Z,39.62
2023-04-18T18:56:28.744Z,39.59
2023-04-18T18:57:28.797Z,40.65
2023-04-18T18:58:28.821Z,38.20
2023-04-18T18:59:28.866Z,38.73
2023-04-18T19:00:28.909Z,39.06
2023-04-18T19:01:29.000Z,39.23
2023-04-18T19:02:29.089Z,37.30
2023-04-18T19:03:29.153Z,40.50
2023-04-18T19:04:29.118Z,37.70
2023-04-18T19:05:29.078Z,39.16
2023-04-18T19:06:29.105Z,40.82
2023-04-18T19:07:30.151Z,38.64
2023-04-18T19:08:29.235Z,38.69
2023-04-18T19:09:29.254Z,37.71
2023-04-18T19:10:29.289Z,40.82
2023-04-18T19:11:29.319Z,42.64
2023-04-18T19:12:29.395Z,39.52
2023-04-18T19:13:29.407Z,39.29
2023-04-18T19:14:29.422Z,40.48
2023-04-18T19:15:29.491Z,42.80
2023-04-18T19:16:29.516Z,39.80
2023-04-18T19:17:29.571Z,39.05
2023-04-18T19:18:30.010Z,40.97
2023-04-18T19:19:29.640Z,41.50
2023-04-18T19:20:29.656Z,42.83
2023-04-18T19:21:29.732Z,39.86
2023-04-18T19:22:29.735Z,40.02
2023-04-18T19:23:29.786Z,40.13
2023-04-18T19:24:29.791Z,39.46
2023-04-18T19:25:29.820Z,40.64
2023-04-18T19:26:29.881Z,39.00
2023-04-18T19:27:29.917Z,40.52
2023-04-18T19:28:29.993Z,39.81
2023-04-18T19:29:31.933Z,36.80
2023-04-18T19:30:30.242Z,40.71
2023-04-18T19:31:30.257Z,37.18
2023-04-18T19:32:30.340Z,37.28
2023-04-18T19:33:30.345Z,43.97
2023-04-18T19:34:30.386Z,39.65
2023-04-18T19:35:30.400Z,39.64
2023-04-18T19:36:30.443Z,40.67
2023-04-18T19:37:30.505Z,40.85
2023-04-18T19:38:30.541Z,40.87
2023-04-18T19:39:30.555Z,42.54
2023-04-18T19:40:30.686Z,42.04
2023-04-18T19:41:30.632Z,42.24
2023-04-18T19:42:30.669Z,40.55
2023-04-18T19:43:30.711Z,37.34
2023-04-18T19:44:30.760Z,39.79
2023-04-18T19:45:30.871Z,38.06
2023-04-18T19:46:30.887Z,37.33
2023-04-18T19:47:30.890Z,38.60
2023-04-18T19:48:30.932Z,41.51
2023-04-18T19:49:30.953Z,39.18
2023-04-18T19:50:30.978Z,39.52
2023-04-18T19:51:31.008Z,39.92
2023-04-18T19:52:31.044Z,40.47
2023-04-18T19:53:31.136Z,39.93
2023-04-18T19:54:31.149Z,38.54
2023-04-18T19:55:31.208Z,42.17
2023-04-18T19:56:31.219Z,40.07
2023-04-18T19:57:31.267Z,36.93
2023-04-18T19:58:31.333Z,39.68
2023-04-18T19:59:31.293Z,38.03
2023-04-18T20:00:31.375Z,37.37
2023-04-18T20:01:31.429Z,38.63
2023-04-18T20:02:31.553Z,40.44
2023-04-18T20:03:31.548Z,38.22
2023-04-18T20:04:31.793Z,40.57
2023-04-18T20:05:31.732Z,39.29
2023-04-18T20:06:31.573Z,39.99
2023-04-18T20:07:31.601Z,40.86
2023-04-18T20:08:31.615Z,38.28
2023-04-18T20:09:31.693Z,37.82
2023-04-18T20:10:31.726Z,40.59
2023-04-18T20:11:31.746Z,41.30
2023-04-18T20:12:31.782Z,37.98
2023-04-18T20:13:31.847Z,40.65
2023-04-18T20:14:31.900Z,40.45
2023-04-18T20:15:31.883Z,39.15
2023-04-18T20:16:31.960Z,42.51
2023-04-18T20:17:31.990Z,39.64
2023-04-18T20:18:32.010Z,38.78
2023-04-18T20:19:32.036Z,37.37
2023-04-18T20:20:32.039Z,36.62
2023-04-18T20:21:32.137Z,35.96
2023-04-18T20:22:32.126Z,38.55
2023-04-18T20:23:32.200Z,36.79
2023-04-18T20:24:32.238Z,35.93
2023-04-18T20:25:32.240Z,37.42
2023-04-18T20:26:32.304Z,37.68
2023-04-18T20:27:32.341Z,38.46
2023-04-18T20:28:32.448Z,38.72
2023-04-18T20:29:32.380Z,35.42
2023-04-18T20:30:32.444Z,38.09
2023-04-18T20:31:32.501Z,38.37
2023-04-18T20:32:32.601Z,37.45
2023-04-18T20:33:32.546Z,40.29
2023-04-18T20:34:32.614Z,38.11
2023-04-18T20:35:32.663Z,36.96
2023-04-18T20:36:32.698Z,36.01
2023-04-18T20:37:32.736Z,40.24
2023-04-18T20:38:32.761Z,36.81
2023-04-18T20:39:32.801Z,35.49
2023-04-18T20:40:32.802Z,38.46
2023-04-18T20:41:32.874Z,39.00
2023-04-18T20:42:32.908Z,35.16
2023-04-18T20:43:32.969Z,39.37
2023-04-18T20:44:33.013Z,35.98
2023-04-18T20:45:33.050Z,37.06
2023-04-18T20:46:33.237Z,38.50
2023-04-18T20:47:33.152Z,37.44
2023-04-18T20:48:33.170Z,41.05
2023-04-18T20:49:33.214Z,36.53
2023-04-18T20:50:33.245Z,38.94
2023-04-18T20:51:33.284Z,40.00
2023-04-18T20:52:33.297Z,38.74
2023-04-18T20:53:33.376Z,40.72
2023-04-18T20:54:33.388Z,39.68
2023-04-18T20:55:33.453Z,39.80
2023-04-18T20:56:33.498Z,38.17
2023-04-18T20:57:33.524Z,39.54
2023-04-18T20:58:33.601Z,39.33
2023-04-18T20:59:33.620Z,40.98
2023-04-18T21:00:33.696Z,38.86
2023-04-18T21:01:35.457Z,41.05
2023-04-18T21:02:33.883Z,40.07
2023-04-18T21:03:33.826Z,40.89
2023-04-18T21:04:33.788Z,38.93
2023-04-18T21:05:33.663Z,38.65
2023-04-18T21:06:33.675Z,39.59
2023-04-18T21:07:33.680Z,37.57
2023-04-18T21:08:33.650Z,37.22
2023-04-18T21:09:34.021Z,40.63
2023-04-18T21:10:33.665Z,40.69
2023-04-18T21:11:33.625Z,39.44
2023-04-18T21:12:33.680Z,39.04
2023-04-18T21:13:33.624Z,38.96
2023-04-18T21:14:33.643Z,37.40
2023-04-18T21:15:33.600Z,40.31
2023-04-18T21:16:33.738Z,39.01
2023-04-18T21:17:33.638Z,36.52
2023-04-18T21:18:33.679Z,38.13
2023-04-18T21:19:33.626Z,35.80
2023-04-18T21:20:33.571Z,39.31
2023-04-18T21:21:33.564Z,40.79
2023-04-18T21:22:33.572Z,39.00
2023-04-18T21:23:33.548Z,36.73
2023-04-18T21:24:33.573Z,38.86
2023-04-18T21:25:33.511Z,37.63
2023-04-18T21:26:33.529Z,37.78
2023-04-18T21:27:33.513Z,37.57
2023-04-18T21:28:33.521Z,37.75
2023-04-18T21:29:33.526Z,40.93
2023-04-18T21:30:33.499Z,40.07
2023-04-18T21:31:33.544Z,38.94
2023-04-18T21:32:33.484Z,36.47
2023-04-18T21:33:33.477Z,38.55
2023-04-18T21:34:33.475Z,42.11
2023-04-18T21:35:33.498Z,39.84
2023-04-18T21:36:33.455Z,36.95
2023-04-18T21:37:33.473Z,38.55
2023-04-18T21:38:33.448Z,37.21
2023-04-18T21:39:33.469Z,39.64
2023-04-18T21:40:33.462Z,38.76
2023-04-18T21:41:33.419Z,37.89
2023-04-18T21:42:33.446Z,39.32
2023-04-18T21:43:33.424Z,37.94
2023-04-18T21:44:33.409Z,40.71
2023-04-18T21:45:33.446Z,38.44
2023-04-18T21:46:33.458Z,36.90
2023-04-18T21:47:33.475Z,36.62
2023-04-18T21:48:33.451Z,37.79
2023-04-18T21:49:33.482Z,37.23
2023-04-18T21:50:33.524Z,37.70
2023-04-18T21:51:33.584Z,38.75
2023-04-18T21:52:33.613Z,38.76
2023-04-18T21:53:33.650Z,38.87
2023-04-18T21:54:33.695Z,37.93
2023-04-18T21:55:33.739Z,36.68
2023-04-18T21:56:33.771Z,37.81
2023-04-18T21:57:33.833Z,38.39
2023-04-18T21:58:33.900Z,39.52
2023-04-18T21:59:33.904Z,37.60
2023-04-18T22:00:33.930Z,35.45
2023-04-18T22:01:34.022Z,37.20
2023-04-18T22:02:34.142Z,37.95
2023-04-18T22:03:34.292Z,36.21
2023-04-18T22:04:34.107Z,34.25
2023-04-18T22:05:34.146Z,37.74
2023-04-18T22:06:34.223Z,36.03
2023-04-18T22:07:38.521Z,38.25
2023-04-18T22:08:35.211Z,38.37
2023-04-18T22:09:34.234Z,38.54
2023-04-18T22:10:34.238Z,38.39
2023-04-18T22:11:34.204Z,38.61
2023-04-18T22:12:34.217Z,39.99
2023-04-18T22:13:34.223Z,38.59
2023-04-18T22:14:34.227Z,36.90
2023-04-18T22:15:34.214Z,38.81
2023-04-18T22:16:34.191Z,36.78
2023-04-18T22:17:34.227Z,38.95
2023-04-18T22:18:34.250Z,38.38
2023-04-18T22:19:34.278Z,37.55
2023-04-18T22:20:34.349Z,35.36
2023-04-18T22:21:34.348Z,35.76
2023-04-18T22:22:34.410Z,36.49
2023-04-18T22:23:34.421Z,34.97
2023-04-18T22:24:34.513Z,36.86
2023-04-18T22:25:34.537Z,38.04
2023-04-18T22:26:34.544Z,35.53
2023-04-18T22:27:34.594Z,40.09
2023-04-18T22:28:34.634Z,36.15
2023-04-18T22:29:34.725Z,37.27
2023-04-18T22:30:34.806Z,38.84
2023-04-18T22:31:34.751Z,37.98
2023-04-18T22:32:34.877Z,36.50
2023-04-18T22:33:34.855Z,35.87
2023-04-18T22:34:34.892Z,36.67
2023-04-18T22:35:34.951Z,36.46
2023-04-18T22:36:34.983Z,34.96
2023-04-18T22:37:35.012Z,35.32
2023-04-18T22:38:35.021Z,36.05
2023-04-18T22:39:35.098Z,36.02
2023-04-18T22:40:35.132Z,35.00
2023-04-18T22:41:35.138Z,34.74
2023-04-18T22:42:36.654Z,37.29
2023-04-18T22:43:35.157Z,37.67
2023-04-18T22:44:35.177Z,38.00
2023-04-18T22:45:35.193Z,37.10
2023-04-18T22:46:35.316Z,34.95
2023-04-18T22:47:35.170Z,37.63
2023-04-18T22:48:35.509Z,36.98
2023-04-18T22:49:35.510Z,36.71
2023-04-18T22:50:35.143Z,37.10
2023-04-18T22:51:35.122Z,35.82
2023-04-18T22:52:35.104Z,33.58
2023-04-18T22:53:35.140Z,35.76
2023-04-18T22:54:35.094Z,33.83
2023-04-18T22:55:35.101Z,33.18
2023-04-18T22:56:35.090Z,35.07
2023-04-18T22:57:35.090Z,34.12
2023-04-18T22:58:35.077Z,35.08
2023-04-18T22:59:35.054Z,35.46
2023-04-18T23:00:35.097Z,37.10
2023-04-18T23:01:35.101Z,34.95
2023-04-18T23:02:35.181Z,34.51
2023-04-18T23:03:35.138Z,39.03
2023-04-18T23:04:35.177Z,37.23
2023-04-18T23:05:35.026Z,36.38
2023-04-18T23:06:35.014Z,37.37
2023-04-18T23:07:35.033Z,32.28
2023-04-18T23:08:34.985Z,33.37
2023-04-18T23:09:34.997Z,33.49
2023-04-18T23:10:34.989Z,35.68
2023-04-18T23:11:34.954Z,31.46
2023-04-18T23:12:34.978Z,34.72
2023-04-18T23:13:34.969Z,39.65
2023-04-18T23:14:34.957Z,35.20
2023-04-18T23:15:35.008Z,35.74
2023-04-18T23:16:34.958Z,33.23